sensor_id;sensor_type;location;lat;lon;timestamp;P1;durP1;ratioP1;P2;durP2;ratioP2
908;SDS011;441;51.192;6.788;2023-02-21T00:01:21;11.27;;;10.97;;
908;SDS011;441;51.192;6.788;2023-02-21T00:04:05;12.70;;;12.10;;
908;SDS011;441;51.192;6.788;2023-02-21T00:06:49;11.57;;;11.23;;
908;SDS011;441;51.192;6.788;2023-02-21T00:09:33;11.50;;;11.20;;
908;SDS011;441;51.192;6.788;2023-02-21T00:12:17;11.20;;;10.80;;
908;SDS011;441;51.192;6.788;2023-02-21T00:15:03;11.10;;;10.80;;
908;SDS011;441;51.192;6.788;2023-02-21T00:17:48;11.70;;;11.30;;
908;SDS011;441;51.192;6.788;2023-02-21T00:20:32;11.47;;;11.17;;
908;SDS011;441;51.192;6.788;2023-02-21T00:23:16;11.37;;;11.00;;
908;SDS011;441;51.192;6.788;2023-02-21T00:26:00;10.80;;;10.50;;
908;SDS011;441;51.192;6.788;2023-02-21T00:28:44;11.80;;;11.43;;
908;SDS011;441;51.192;6.788;2023-02-21T00:31:30;12.10;;;11.70;;
908;SDS011;441;51.192;6.788;2023-02-21T00:34:15;11.67;;;11.27;;
908;SDS011;441;51.192;6.788;2023-02-21T00:36:59;11.90;;;11.50;;
908;SDS011;441;51.192;6.788;2023-02-21T00:39:43;11.23;;;10.93;;
908;SDS011;441;51.192;6.788;2023-02-21T00:42:27;11.17;;;10.87;;
908;SDS011;441;51.192;6.788;2023-02-21T00:45:11;11.17;;;10.77;;
908;SDS011;441;51.192;6.788;2023-02-21T00:47:57;11.70;;;11.20;;
908;SDS011;441;51.192;6.788;2023-02-21T00:50:41;11.60;;;11.30;;
908;SDS011;441;51.192;6.788;2023-02-21T00:53:25;11.70;;;11.30;;
908;SDS011;441;51.192;6.788;2023-02-21T00:56:09;11.70;;;11.37;;
908;SDS011;441;51.192;6.788;2023-02-21T00:58:53;11.57;;;11.20;;
908;SDS011;441;51.192;6.788;2023-02-21T01:01:37;11.60;;;11.30;;
908;SDS011;441;51.192;6.788;2023-02-21T01:04:23;10.83;;;10.53;;
908;SDS011;441;51.192;6.788;2023-02-21T01:07:08;11.30;;;10.90;;
908;SDS011;441;51.192;6.788;2023-02-21T01:09:52;10.87;;;10.57;;
908;SDS011;441;51.192;6.788;2023-02-21T01:12:36;11.70;;;11.30;;
908;SDS011;441;51.192;6.788;2023-02-21T01:15:20;11.97;;;11.57;;
908;SDS011;441;51.192;6.788;2023-02-21T01:18:04;11.67;;;11.27;;
908;SDS011;441;51.192;6.788;2023-02-21T01:20:50;11.60;;;11.20;;
908;SDS011;441;51.192;6.788;2023-02-21T01:23:34;11.30;;;11.00;;
908;SDS011;441;51.192;6.788;2023-02-21T01:26:18;11.27;;;10.87;;
908;SDS011;441;51.192;6.788;2023-02-21T01:29:03;11.57;;;11.10;;
908;SDS011;441;51.192;6.788;2023-02-21T01:31:47;11.10;;;10.80;;
908;SDS011;441;51.192;6.788;2023-02-21T01:34:32;11.67;;;11.27;;
908;SDS011;441;51.192;6.788;2023-02-21T01:37:17;11.67;;;11.27;;
908;SDS011;441;51.192;6.788;2023-02-21T01:40:02;11.50;;;11.20;;
908;SDS011;441;51.192;6.788;2023-02-21T01:42:46;11.57;;;11.17;;
908;SDS011;441;51.192;6.788;2023-02-21T01:45:45;11.50;;;11.10;;
908;SDS011;441;51.192;6.788;2023-02-21T01:48:31;11.57;;;11.17;;
908;SDS011;441;51.192;6.788;2023-02-21T01:51:18;11.90;;;11.47;;
908;SDS011;441;51.192;6.788;2023-02-21T01:54:06;11.83;;;11.43;;
908;SDS011;441;51.192;6.788;2023-02-21T01:56:52;11.20;;;10.90;;
908;SDS011;441;51.192;6.788;2023-02-21T01:59:37;11.43;;;11.13;;
908;SDS011;441;51.192;6.788;2023-02-21T02:02:26;11.80;;;11.33;;
908;SDS011;441;51.192;6.788;2023-02-21T02:05:13;11.10;;;10.80;;
908;SDS011;441;51.192;6.788;2023-02-21T02:07:58;11.33;;;11.00;;
908;SDS011;441;51.192;6.788;2023-02-21T02:10:43;11.90;;;11.50;;
908;SDS011;441;51.192;6.788;2023-02-21T02:13:33;12.10;;;11.70;;
908;SDS011;441;51.192;6.788;2023-02-21T02:16:18;12.23;;;11.83;;
908;SDS011;441;51.192;6.788;2023-02-21T02:18:56;10.97;;;10.57;;
908;SDS011;441;51.192;6.788;2023-02-21T02:24:46;12.37;;;11.83;;
908;SDS011;441;51.192;6.788;2023-02-21T02:27:39;11.93;;;11.43;;
908;SDS011;441;51.192;6.788;2023-02-21T02:33:39;11.70;;;11.30;;
908;SDS011;441;51.192;6.788;2023-02-21T02:36:38;11.60;;;11.20;;
908;SDS011;441;51.192;6.788;2023-02-21T02:39:10;11.63;;;11.23;;
908;SDS011;441;51.192;6.788;2023-02-21T02:41:46;11.73;;;11.33;;
908;SDS011;441;51.192;6.788;2023-02-21T02:44:20;12.47;;;11.97;;
908;SDS011;441;51.192;6.788;2023-02-21T02:46:53;12.00;;;11.60;;
908;SDS011;441;51.192;6.788;2023-02-21T02:49:24;12.63;;;12.23;;
908;SDS011;441;51.192;6.788;2023-02-21T02:51:54;11.70;;;11.30;;
908;SDS011;441;51.192;6.788;2023-02-21T02:54:29;13.03;;;12.53;;
908;SDS011;441;51.192;6.788;2023-02-21T02:56:56;12.80;;;12.10;;
908;SDS011;441;51.192;6.788;2023-02-21T02:59:24;11.87;;;11.47;;
908;SDS011;441;51.192;6.788;2023-02-21T03:05:07;13.70;;;13.00;;
908;SDS011;441;51.192;6.788;2023-02-21T03:07:45;12.07;;;11.57;;
908;SDS011;441;51.192;6.788;2023-02-21T03:10:22;11.97;;;11.57;;
908;SDS011;441;51.192;6.788;2023-02-21T03:12:58;12.70;;;12.20;;
908;SDS011;441;51.192;6.788;2023-02-21T03:15:31;13.40;;;12.70;;
908;SDS011;441;51.192;6.788;2023-02-21T03:18:04;12.70;;;12.20;;
908;SDS011;441;51.192;6.788;2023-02-21T03:20:37;11.27;;;10.87;;
908;SDS011;441;51.192;6.788;2023-02-21T03:23:06;12.67;;;12.17;;
908;SDS011;441;51.192;6.788;2023-02-21T03:25:36;12.47;;;11.97;;
908;SDS011;441;51.192;6.788;2023-02-21T03:28:05;12.77;;;12.27;;
908;SDS011;441;51.192;6.788;2023-02-21T03:30:32;15.87;;;15.00;;
908;SDS011;441;51.192;6.788;2023-02-21T03:32:59;12.97;;;12.47;;
908;SDS011;441;51.192;6.788;2023-02-21T03:35:27;13.93;;;13.43;;
908;SDS011;441;51.192;6.788;2023-02-21T03:37:55;12.83;;;12.40;;
908;SDS011;441;51.192;6.788;2023-02-21T03:40:26;13.00;;;12.60;;
908;SDS011;441;51.192;6.788;2023-02-21T03:42:55;13.13;;;12.63;;
908;SDS011;441;51.192;6.788;2023-02-21T03:45:22;13.47;;;13.00;;
908;SDS011;441;51.192;6.788;2023-02-21T03:47:49;13.30;;;12.80;;
908;SDS011;441;51.192;6.788;2023-02-21T03:50:16;13.20;;;12.70;;
908;SDS011;441;51.192;6.788;2023-02-21T03:52:43;13.47;;;12.90;;
908;SDS011;441;51.192;6.788;2023-02-21T03:55:10;13.20;;;12.60;;
908;SDS011;441;51.192;6.788;2023-02-21T03:57:38;13.17;;;12.57;;
908;SDS011;441;51.192;6.788;2023-02-21T04:00:06;13.07;;;12.57;;
908;SDS011;441;51.192;6.788;2023-02-21T04:02:33;12.70;;;12.20;;
908;SDS011;441;51.192;6.788;2023-02-21T04:05:00;12.40;;;11.90;;
908;SDS011;441;51.192;6.788;2023-02-21T04:07:27;12.70;;;12.20;;
908;SDS011;441;51.192;6.788;2023-02-21T04:09:54;12.37;;;11.97;;
908;SDS011;441;51.192;6.788;2023-02-21T04:12:21;12.80;;;12.30;;
908;SDS011;441;51.192;6.788;2023-02-21T04:14:49;13.30;;;12.80;;
908;SDS011;441;51.192;6.788;2023-02-21T04:17:16;12.17;;;11.77;;
908;SDS011;441;51.192;6.788;2023-02-21T04:19:43;12.73;;;12.30;;
908;SDS011;441;51.192;6.788;2023-02-21T04:22:10;13.07;;;12.57;;
908;SDS011;441;51.192;6.788;2023-02-21T04:24:37;13.00;;;12.43;;
908;SDS011;441;51.192;6.788;2023-02-21T04:27:04;12.10;;;11.70;;
908;SDS011;441;51.192;6.788;2023-02-21T04:29:31;13.33;;;12.83;;
908;SDS011;441;51.192;6.788;2023-02-21T04:31:59;13.17;;;12.67;;
908;SDS011;441;51.192;6.788;2023-02-21T04:34:27;13.53;;;13.03;;
908;SDS011;441;51.192;6.788;2023-02-21T04:36:53;14.60;;;14.00;;
908;SDS011;441;51.192;6.788;2023-02-21T04:39:20;12.30;;;11.83;;
908;SDS011;441;51.192;6.788;2023-02-21T04:41:47;12.77;;;12.27;;
908;SDS011;441;51.192;6.788;2023-02-21T04:44:14;12.43;;;12.03;;
908;SDS011;441;51.192;6.788;2023-02-21T04:46:42;12.67;;;12.17;;
908;SDS011;441;51.192;6.788;2023-02-21T04:49:10;14.17;;;13.57;;
908;SDS011;441;51.192;6.788;2023-02-21T04:51:38;13.27;;;12.77;;
908;SDS011;441;51.192;6.788;2023-02-21T04:54:05;14.23;;;13.63;;
908;SDS011;441;51.192;6.788;2023-02-21T04:56:32;13.77;;;13.27;;
908;SDS011;441;51.192;6.788;2023-02-21T04:58:59;13.27;;;12.77;;
908;SDS011;441;51.192;6.788;2023-02-21T05:01:26;13.13;;;12.63;;
908;SDS011;441;51.192;6.788;2023-02-21T05:03:55;13.50;;;13.00;;
908;SDS011;441;51.192;6.788;2023-02-21T05:06:24;12.77;;;12.37;;
908;SDS011;441;51.192;6.788;2023-02-21T05:08:52;13.47;;;12.97;;
908;SDS011;441;51.192;6.788;2023-02-21T05:11:19;13.97;;;13.47;;
908;SDS011;441;51.192;6.788;2023-02-21T05:13:47;13.43;;;12.93;;
908;SDS011;441;51.192;6.788;2023-02-21T05:16:14;14.23;;;13.63;;
908;SDS011;441;51.192;6.788;2023-02-21T05:18:42;13.23;;;12.77;;
908;SDS011;441;51.192;6.788;2023-02-21T05:21:09;13.17;;;12.77;;
908;SDS011;441;51.192;6.788;2023-02-21T05:23:39;13.33;;;12.83;;
908;SDS011;441;51.192;6.788;2023-02-21T05:26:08;13.67;;;13.07;;
908;SDS011;441;51.192;6.788;2023-02-21T05:28:36;13.40;;;12.90;;
908;SDS011;441;51.192;6.788;2023-02-21T05:31:04;15.63;;;14.40;;
908;SDS011;441;51.192;6.788;2023-02-21T05:33:31;16.23;;;14.97;;
908;SDS011;441;51.192;6.788;2023-02-21T05:35:58;20.07;;;14.10;;
908;SDS011;441;51.192;6.788;2023-02-21T05:38:25;25.50;;;15.00;;
908;SDS011;441;51.192;6.788;2023-02-21T05:40:54;24.27;;;18.00;;
908;SDS011;441;51.192;6.788;2023-02-21T05:43:21;16.30;;;14.80;;
908;SDS011;441;51.192;6.788;2023-02-21T05:45:48;18.87;;;16.87;;
908;SDS011;441;51.192;6.788;2023-02-21T05:50:43;18.93;;;17.57;;
908;SDS011;441;51.192;6.788;2023-02-21T05:53:10;18.17;;;16.57;;
908;SDS011;441;51.192;6.788;2023-02-21T05:55:37;17.37;;;16.17;;
908;SDS011;441;51.192;6.788;2023-02-21T05:58:05;18.17;;;16.50;;
908;SDS011;441;51.192;6.788;2023-02-21T06:00:31;19.30;;;16.07;;
908;SDS011;441;51.192;6.788;2023-02-21T06:02:58;18.23;;;16.47;;
908;SDS011;441;51.192;6.788;2023-02-21T06:05:25;20.03;;;17.83;;
908;SDS011;441;51.192;6.788;2023-02-21T06:07:52;18.30;;;16.90;;
908;SDS011;441;51.192;6.788;2023-02-21T06:10:19;19.43;;;17.50;;
908;SDS011;441;51.192;6.788;2023-02-21T06:12:46;18.43;;;16.97;;
908;SDS011;441;51.192;6.788;2023-02-21T06:15:14;17.60;;;16.10;;
908;SDS011;441;51.192;6.788;2023-02-21T06:17:41;16.70;;;15.50;;
908;SDS011;441;51.192;6.788;2023-02-21T06:20:10;17.23;;;15.63;;
908;SDS011;441;51.192;6.788;2023-02-21T06:22:40;16.93;;;15.63;;
908;SDS011;441;51.192;6.788;2023-02-21T06:25:07;15.20;;;14.40;;
908;SDS011;441;51.192;6.788;2023-02-21T06:27:34;16.93;;;15.53;;
908;SDS011;441;51.192;6.788;2023-02-21T06:30:01;17.73;;;16.20;;
908;SDS011;441;51.192;6.788;2023-02-21T06:32:30;14.83;;;14.00;;
908;SDS011;441;51.192;6.788;2023-02-21T06:34:57;16.47;;;15.17;;
908;SDS011;441;51.192;6.788;2023-02-21T06:37:23;15.57;;;14.77;;
908;SDS011;441;51.192;6.788;2023-02-21T06:39:50;16.63;;;15.23;;
908;SDS011;441;51.192;6.788;2023-02-21T06:42:17;15.43;;;14.33;;
908;SDS011;441;51.192;6.788;2023-02-21T06:44:44;15.97;;;14.60;;
908;SDS011;441;51.192;6.788;2023-02-21T06:47:12;15.07;;;13.93;;
908;SDS011;441;51.192;6.788;2023-02-21T06:49:40;15.63;;;14.70;;
908;SDS011;441;51.192;6.788;2023-02-21T06:52:07;13.83;;;13.00;;
908;SDS011;441;51.192;6.788;2023-02-21T06:54:34;16.60;;;15.43;;
908;SDS011;441;51.192;6.788;2023-02-21T06:57:02;16.33;;;15.07;;
908;SDS011;441;51.192;6.788;2023-02-21T06:59:29;15.03;;;14.03;;
908;SDS011;441;51.192;6.788;2023-02-21T07:01:57;14.53;;;13.63;;
908;SDS011;441;51.192;6.788;2023-02-21T07:04:24;14.80;;;13.87;;
908;SDS011;441;51.192;6.788;2023-02-21T07:06:52;16.63;;;15.53;;
908;SDS011;441;51.192;6.788;2023-02-21T07:09:19;16.03;;;15.03;;
908;SDS011;441;51.192;6.788;2023-02-21T07:11:46;15.90;;;14.70;;
908;SDS011;441;51.192;6.788;2023-02-21T07:14:13;15.53;;;14.57;;
908;SDS011;441;51.192;6.788;2023-02-21T07:16:40;15.47;;;14.70;;
908;SDS011;441;51.192;6.788;2023-02-21T07:19:07;15.13;;;14.13;;
908;SDS011;441;51.192;6.788;2023-02-21T07:21:33;14.50;;;13.80;;
908;SDS011;441;51.192;6.788;2023-02-21T07:24:02;13.30;;;12.80;;
908;SDS011;441;51.192;6.788;2023-02-21T07:26:29;14.87;;;13.97;;
908;SDS011;441;51.192;6.788;2023-02-21T07:28:55;14.80;;;13.90;;
908;SDS011;441;51.192;6.788;2023-02-21T07:31:22;14.57;;;13.70;;
908;SDS011;441;51.192;6.788;2023-02-21T07:33:49;15.07;;;14.17;;
908;SDS011;441;51.192;6.788;2023-02-21T07:36:16;15.20;;;14.10;;
908;SDS011;441;51.192;6.788;2023-02-21T07:38:43;14.73;;;13.97;;
908;SDS011;441;51.192;6.788;2023-02-21T07:41:12;13.97;;;13.27;;
908;SDS011;441;51.192;6.788;2023-02-21T07:43:40;14.27;;;13.67;;
908;SDS011;441;51.192;6.788;2023-02-21T07:46:08;16.70;;;15.40;;
908;SDS011;441;51.192;6.788;2023-02-21T07:48:36;14.63;;;13.90;;
908;SDS011;441;51.192;6.788;2023-02-21T07:51:03;14.60;;;13.80;;
908;SDS011;441;51.192;6.788;2023-02-21T07:53:31;13.70;;;12.70;;
908;SDS011;441;51.192;6.788;2023-02-21T07:55:58;13.63;;;13.03;;
908;SDS011;441;51.192;6.788;2023-02-21T07:58:26;15.27;;;14.50;;
908;SDS011;441;51.192;6.788;2023-02-21T08:00:53;14.27;;;13.47;;
908;SDS011;441;51.192;6.788;2023-02-21T08:03:20;13.50;;;12.90;;
908;SDS011;441;51.192;6.788;2023-02-21T08:05:47;13.40;;;12.57;;
908;SDS011;441;51.192;6.788;2023-02-21T08:08:14;13.97;;;13.20;;
908;SDS011;441;51.192;6.788;2023-02-21T08:10:42;13.90;;;12.97;;
908;SDS011;441;51.192;6.788;2023-02-21T08:13:08;13.40;;;12.80;;
908;SDS011;441;51.192;6.788;2023-02-21T08:15:37;13.70;;;13.00;;
908;SDS011;441;51.192;6.788;2023-02-21T08:18:03;13.73;;;13.10;;
908;SDS011;441;51.192;6.788;2023-02-21T08:20:30;13.57;;;12.97;;
908;SDS011;441;51.192;6.788;2023-02-21T08:22:57;14.00;;;13.40;;
908;SDS011;441;51.192;6.788;2023-02-21T08:25:24;14.10;;;13.47;;
908;SDS011;441;51.192;6.788;2023-02-21T08:27:51;13.40;;;12.90;;
908;SDS011;441;51.192;6.788;2023-02-21T08:30:19;13.67;;;13.00;;
908;SDS011;441;51.192;6.788;2023-02-21T08:32:47;14.20;;;13.30;;
908;SDS011;441;51.192;6.788;2023-02-21T08:35:15;13.33;;;12.67;;
908;SDS011;441;51.192;6.788;2023-02-21T08:37:43;14.07;;;13.33;;
908;SDS011;441;51.192;6.788;2023-02-21T08:40:11;14.00;;;13.20;;
908;SDS011;441;51.192;6.788;2023-02-21T08:42:39;14.00;;;13.23;;
908;SDS011;441;51.192;6.788;2023-02-21T08:45:06;14.63;;;13.83;;
908;SDS011;441;51.192;6.788;2023-02-21T08:47:34;13.40;;;12.80;;
908;SDS011;441;51.192;6.788;2023-02-21T08:50:03;13.27;;;12.83;;
908;SDS011;441;51.192;6.788;2023-02-21T08:52:30;13.47;;;12.97;;
908;SDS011;441;51.192;6.788;2023-02-21T08:54:57;13.80;;;13.13;;
908;SDS011;441;51.192;6.788;2023-02-21T08:57:24;13.27;;;12.60;;
908;SDS011;441;51.192;6.788;2023-02-21T08:59:51;14.20;;;13.50;;
908;SDS011;441;51.192;6.788;2023-02-21T09:02:18;13.43;;;12.93;;
908;SDS011;441;51.192;6.788;2023-02-21T09:04:46;14.20;;;13.63;;
908;SDS011;441;51.192;6.788;2023-02-21T09:07:15;14.33;;;13.83;;
908;SDS011;441;51.192;6.788;2023-02-21T09:09:43;14.00;;;13.20;;
908;SDS011;441;51.192;6.788;2023-02-21T09:12:11;14.30;;;13.70;;
908;SDS011;441;51.192;6.788;2023-02-21T09:14:38;14.60;;;13.70;;
908;SDS011;441;51.192;6.788;2023-02-21T09:17:07;13.47;;;12.87;;
908;SDS011;441;51.192;6.788;2023-02-21T09:19:35;14.60;;;14.03;;
908;SDS011;441;51.192;6.788;2023-02-21T09:22:02;13.67;;;13.20;;
908;SDS011;441;51.192;6.788;2023-02-21T09:24:30;13.20;;;12.60;;
908;SDS011;441;51.192;6.788;2023-02-21T09:26:57;13.97;;;13.37;;
908;SDS011;441;51.192;6.788;2023-02-21T09:29:27;14.20;;;13.70;;
908;SDS011;441;51.192;6.788;2023-02-21T09:31:55;14.80;;;14.20;;
908;SDS011;441;51.192;6.788;2023-02-21T09:34:21;14.93;;;14.27;;
908;SDS011;441;51.192;6.788;2023-02-21T09:36:49;14.23;;;13.60;;
908;SDS011;441;51.192;6.788;2023-02-21T09:39:16;14.73;;;14.03;;
908;SDS011;441;51.192;6.788;2023-02-21T09:41:45;14.43;;;13.90;;
908;SDS011;441;51.192;6.788;2023-02-21T09:44:14;13.90;;;13.40;;
908;SDS011;441;51.192;6.788;2023-02-21T09:46:43;14.10;;;13.33;;
908;SDS011;441;51.192;6.788;2023-02-21T09:49:15;14.93;;;14.23;;
908;SDS011;441;51.192;6.788;2023-02-21T09:51:47;14.23;;;13.63;;
908;SDS011;441;51.192;6.788;2023-02-21T09:54:16;15.00;;;14.40;;
908;SDS011;441;51.192;6.788;2023-02-21T09:56:50;13.50;;;13.00;;
908;SDS011;441;51.192;6.788;2023-02-21T09:59:17;14.37;;;13.77;;
908;SDS011;441;51.192;6.788;2023-02-21T10:01:46;13.70;;;13.17;;
908;SDS011;441;51.192;6.788;2023-02-21T10:04:22;13.30;;;12.80;;
908;SDS011;441;51.192;6.788;2023-02-21T10:07:05;14.10;;;13.40;;
908;SDS011;441;51.192;6.788;2023-02-21T10:09:40;13.17;;;12.67;;
908;SDS011;441;51.192;6.788;2023-02-21T10:12:15;13.40;;;12.90;;
908;SDS011;441;51.192;6.788;2023-02-21T10:14:53;14.63;;;14.03;;
908;SDS011;441;51.192;6.788;2023-02-21T10:17:34;13.37;;;12.87;;
908;SDS011;441;51.192;6.788;2023-02-21T10:20:10;14.20;;;13.70;;
908;SDS011;441;51.192;6.788;2023-02-21T10:22:40;13.83;;;13.33;;
908;SDS011;441;51.192;6.788;2023-02-21T10:25:17;13.57;;;13.17;;
908;SDS011;441;51.192;6.788;2023-02-21T10:27:48;12.97;;;12.47;;
908;SDS011;441;51.192;6.788;2023-02-21T10:30:19;13.57;;;13.07;;
908;SDS011;441;51.192;6.788;2023-02-21T10:32:55;13.20;;;12.77;;
908;SDS011;441;51.192;6.788;2023-02-21T10:35:22;13.53;;;12.93;;
908;SDS011;441;51.192;6.788;2023-02-21T10:37:50;12.30;;;11.90;;
908;SDS011;441;51.192;6.788;2023-02-21T10:40:24;12.70;;;12.30;;
908;SDS011;441;51.192;6.788;2023-02-21T10:42:58;12.70;;;12.30;;
908;SDS011;441;51.192;6.788;2023-02-21T10:45:29;12.67;;;12.17;;
908;SDS011;441;51.192;6.788;2023-02-21T10:48:02;12.70;;;12.20;;
908;SDS011;441;51.192;6.788;2023-02-21T10:50:38;14.00;;;13.27;;
908;SDS011;441;51.192;6.788;2023-02-21T10:53:08;11.50;;;10.90;;
908;SDS011;441;51.192;6.788;2023-02-21T10:55:46;13.67;;;13.17;;
908;SDS011;441;51.192;6.788;2023-02-21T10:58:48;13.87;;;13.27;;
908;SDS011;441;51.192;6.788;2023-02-21T11:01:19;13.17;;;12.77;;
908;SDS011;441;51.192;6.788;2023-02-21T11:03:50;13.47;;;13.07;;
908;SDS011;441;51.192;6.788;2023-02-21T11:06:20;13.67;;;13.20;;
908;SDS011;441;51.192;6.788;2023-02-21T11:08:52;13.63;;;13.13;;
908;SDS011;441;51.192;6.788;2023-02-21T11:11:32;13.70;;;13.20;;
908;SDS011;441;51.192;6.788;2023-02-21T11:14:09;14.87;;;13.93;;
908;SDS011;441;51.192;6.788;2023-02-21T11:22:34;11.82;;;11.32;;
908;SDS011;441;51.192;6.788;2023-02-21T11:25:03;14.27;;;13.47;;
908;SDS011;441;51.192;6.788;2023-02-21T11:27:34;14.73;;;14.13;;
908;SDS011;441;51.192;6.788;2023-02-21T11:30:09;13.50;;;13.00;;
908;SDS011;441;51.192;6.788;2023-02-21T11:32:39;14.30;;;13.67;;
908;SDS011;441;51.192;6.788;2023-02-21T11:35:19;14.50;;;13.87;;
908;SDS011;441;51.192;6.788;2023-02-21T11:37:51;13.30;;;12.90;;
908;SDS011;441;51.192;6.788;2023-02-21T11:40:28;14.00;;;13.40;;
908;SDS011;441;51.192;6.788;2023-02-21T11:45:56;14.77;;;14.03;;
908;SDS011;441;51.192;6.788;2023-02-21T11:48:29;13.87;;;13.37;;
908;SDS011;441;51.192;6.788;2023-02-21T11:51:02;13.53;;;12.93;;
908;SDS011;441;51.192;6.788;2023-02-21T11:53:35;13.20;;;12.70;;
908;SDS011;441;51.192;6.788;2023-02-21T11:56:05;13.33;;;12.80;;
908;SDS011;441;51.192;6.788;2023-02-21T11:58:42;13.27;;;12.87;;
908;SDS011;441;51.192;6.788;2023-02-21T12:01:18;13.00;;;12.60;;
908;SDS011;441;51.192;6.788;2023-02-21T12:03:58;14.10;;;13.50;;
908;SDS011;441;51.192;6.788;2023-02-21T12:06:40;14.10;;;13.37;;
908;SDS011;441;51.192;6.788;2023-02-21T12:09:11;12.50;;;12.00;;
908;SDS011;441;51.192;6.788;2023-02-21T12:11:47;13.67;;;13.10;;
908;SDS011;441;51.192;6.788;2023-02-21T12:14:25;12.27;;;11.87;;
908;SDS011;441;51.192;6.788;2023-02-21T12:17:03;12.93;;;12.33;;
908;SDS011;441;51.192;6.788;2023-02-21T12:19:44;12.20;;;11.80;;
908;SDS011;441;51.192;6.788;2023-02-21T12:22:26;12.70;;;12.20;;
908;SDS011;441;51.192;6.788;2023-02-21T12:25:08;13.10;;;12.70;;
908;SDS011;441;51.192;6.788;2023-02-21T12:27:42;12.27;;;11.87;;
908;SDS011;441;51.192;6.788;2023-02-21T12:30:24;13.00;;;12.47;;
908;SDS011;441;51.192;6.788;2023-02-21T12:33:04;13.50;;;12.97;;
908;SDS011;441;51.192;6.788;2023-02-21T12:35:48;13.40;;;12.90;;
908;SDS011;441;51.192;6.788;2023-02-21T12:38:41;13.73;;;13.23;;
908;SDS011;441;51.192;6.788;2023-02-21T12:41:27;12.00;;;11.70;;
908;SDS011;441;51.192;6.788;2023-02-21T12:44:03;12.30;;;11.90;;
908;SDS011;441;51.192;6.788;2023-02-21T12:46:37;12.87;;;12.37;;
908;SDS011;441;51.192;6.788;2023-02-21T12:49:09;12.40;;;12.00;;
908;SDS011;441;51.192;6.788;2023-02-21T12:51:43;13.00;;;12.60;;
908;SDS011;441;51.192;6.788;2023-02-21T12:54:15;12.90;;;12.50;;
908;SDS011;441;51.192;6.788;2023-02-21T12:56:46;12.97;;;12.57;;
908;SDS011;441;51.192;6.788;2023-02-21T12:59:19;13.00;;;12.60;;
908;SDS011;441;51.192;6.788;2023-02-21T13:01:52;13.27;;;12.87;;
908;SDS011;441;51.192;6.788;2023-02-21T13:04:23;13.63;;;13.13;;
908;SDS011;441;51.192;6.788;2023-02-21T13:06:59;13.00;;;12.60;;
908;SDS011;441;51.192;6.788;2023-02-21T13:09:33;13.67;;;13.17;;
908;SDS011;441;51.192;6.788;2023-02-21T13:12:04;14.43;;;13.93;;
908;SDS011;441;51.192;6.788;2023-02-21T13:14:35;13.07;;;12.57;;
908;SDS011;441;51.192;6.788;2023-02-21T13:17:08;12.77;;;12.27;;
908;SDS011;441;51.192;6.788;2023-02-21T13:19:40;12.73;;;12.33;;
908;SDS011;441;51.192;6.788;2023-02-21T13:25:35;12.20;;;11.80;;
908;SDS011;441;51.192;6.788;2023-02-21T13:28:16;12.40;;;11.90;;
908;SDS011;441;51.192;6.788;2023-02-21T13:30:49;12.93;;;12.50;;
908;SDS011;441;51.192;6.788;2023-02-21T13:33:25;12.77;;;12.37;;
908;SDS011;441;51.192;6.788;2023-02-21T13:35:56;13.13;;;12.63;;
908;SDS011;441;51.192;6.788;2023-02-21T13:38:25;12.93;;;12.43;;
908;SDS011;441;51.192;6.788;2023-02-21T13:41:01;13.37;;;12.87;;
908;SDS011;441;51.192;6.788;2023-02-21T13:43:31;13.87;;;13.33;;
908;SDS011;441;51.192;6.788;2023-02-21T13:51:51;13.67;;;13.07;;
908;SDS011;441;51.192;6.788;2023-02-21T13:54:20;14.10;;;13.40;;
908;SDS011;441;51.192;6.788;2023-02-21T13:56:49;14.10;;;13.60;;
908;SDS011;441;51.192;6.788;2023-02-21T13:59:29;13.87;;;13.37;;
908;SDS011;441;51.192;6.788;2023-02-21T14:02:17;13.20;;;12.70;;
908;SDS011;441;51.192;6.788;2023-02-21T14:07:42;12.47;;;12.03;;
908;SDS011;441;51.192;6.788;2023-02-21T14:10:16;12.50;;;12.10;;
908;SDS011;441;51.192;6.788;2023-02-21T14:12:51;13.63;;;13.10;;
908;SDS011;441;51.192;6.788;2023-02-21T14:15:21;13.10;;;12.67;;
908;SDS011;441;51.192;6.788;2023-02-21T14:17:49;12.80;;;12.40;;
908;SDS011;441;51.192;6.788;2023-02-21T14:20:18;13.60;;;13.10;;
908;SDS011;441;51.192;6.788;2023-02-21T14:22:49;14.07;;;13.47;;
908;SDS011;441;51.192;6.788;2023-02-21T14:25:18;14.37;;;13.87;;
908;SDS011;441;51.192;6.788;2023-02-21T14:27:48;13.33;;;12.93;;
908;SDS011;441;51.192;6.788;2023-02-21T14:30:25;14.03;;;13.53;;
908;SDS011;441;51.192;6.788;2023-02-21T14:32:56;12.97;;;12.50;;
908;SDS011;441;51.192;6.788;2023-02-21T14:35:36;12.03;;;11.63;;
908;SDS011;441;51.192;6.788;2023-02-21T14:38:16;13.40;;;12.80;;
908;SDS011;441;51.192;6.788;2023-02-21T14:40:48;13.63;;;13.03;;
908;SDS011;441;51.192;6.788;2023-02-21T14:46:35;12.53;;;12.13;;
908;SDS011;441;51.192;6.788;2023-02-21T14:49:41;12.48;;;11.98;;
908;SDS011;441;51.192;6.788;2023-02-21T14:52:29;13.20;;;12.60;;
908;SDS011;441;51.192;6.788;2023-02-21T14:58:33;12.00;;;11.48;;
908;SDS011;441;51.192;6.788;2023-02-21T15:01:29;13.67;;;13.07;;
908;SDS011;441;51.192;6.788;2023-02-21T15:04:08;13.80;;;13.10;;
908;SDS011;441;51.192;6.788;2023-02-21T15:06:42;13.47;;;12.87;;
908;SDS011;441;51.192;6.788;2023-02-21T15:09:18;14.50;;;13.70;;
908;SDS011;441;51.192;6.788;2023-02-21T15:11:47;14.20;;;13.60;;
908;SDS011;441;51.192;6.788;2023-02-21T15:14:16;14.73;;;14.03;;
908;SDS011;441;51.192;6.788;2023-02-21T15:16:48;13.60;;;13.00;;
908;SDS011;441;51.192;6.788;2023-02-21T15:19:27;14.30;;;13.60;;
908;SDS011;441;51.192;6.788;2023-02-21T15:25:10;14.10;;;13.40;;
908;SDS011;441;51.192;6.788;2023-02-21T15:27:53;14.23;;;13.30;;
908;SDS011;441;51.192;6.788;2023-02-21T15:30:25;14.15;;;13.45;;
908;SDS011;441;51.192;6.788;2023-02-21T15:32:56;13.40;;;12.90;;
908;SDS011;441;51.192;6.788;2023-02-21T15:35:26;15.27;;;14.17;;
908;SDS011;441;51.192;6.788;2023-02-21T15:37:57;14.10;;;13.30;;
908;SDS011;441;51.192;6.788;2023-02-21T15:40:26;15.07;;;13.93;;
908;SDS011;441;51.192;6.788;2023-02-21T15:42:55;13.00;;;12.50;;
908;SDS011;441;51.192;6.788;2023-02-21T15:45:23;14.03;;;13.23;;
908;SDS011;441;51.192;6.788;2023-02-21T15:47:53;13.70;;;13.10;;
908;SDS011;441;51.192;6.788;2023-02-21T15:50:25;14.67;;;13.20;;
908;SDS011;441;51.192;6.788;2023-02-21T15:52:56;14.00;;;13.50;;
908;SDS011;441;51.192;6.788;2023-02-21T15:55:40;14.30;;;13.80;;
908;SDS011;441;51.192;6.788;2023-02-21T15:58:17;13.13;;;12.50;;
908;SDS011;441;51.192;6.788;2023-02-21T16:00:48;14.57;;;13.97;;
908;SDS011;441;51.192;6.788;2023-02-21T16:03:35;15.00;;;14.20;;
908;SDS011;441;51.192;6.788;2023-02-21T16:06:08;14.43;;;13.67;;
908;SDS011;441;51.192;6.788;2023-02-21T16:08:39;13.50;;;12.97;;
908;SDS011;441;51.192;6.788;2023-02-21T16:11:15;13.50;;;12.80;;
908;SDS011;441;51.192;6.788;2023-02-21T16:13:45;14.27;;;13.57;;
908;SDS011;441;51.192;6.788;2023-02-21T16:16:12;14.27;;;13.40;;
908;SDS011;441;51.192;6.788;2023-02-21T16:18:39;13.73;;;13.07;;
908;SDS011;441;51.192;6.788;2023-02-21T16:21:06;14.00;;;13.40;;
908;SDS011;441;51.192;6.788;2023-02-21T16:23:53;14.03;;;13.13;;
908;SDS011;441;51.192;6.788;2023-02-21T16:26:21;13.70;;;13.10;;
908;SDS011;441;51.192;6.788;2023-02-21T16:28:53;13.17;;;12.67;;
908;SDS011;441;51.192;6.788;2023-02-21T16:31:24;13.53;;;12.93;;
908;SDS011;441;51.192;6.788;2023-02-21T16:33:52;13.20;;;12.60;;